createdAt,value
2018-06-18T00:02:13.978Z,5.58
2018-06-18T00:04:41.249Z,6.00
2018-06-18T00:07:08.589Z,6.37
2018-06-18T00:09:35.953Z,6.28
2018-06-18T00:12:03.238Z,6.70
2018-06-18T00:14:30.575Z,7.55
2018-06-18T00:16:57.932Z,6.80
2018-06-18T00:19:25.249Z,8.45
2018-06-18T00:21:52.583Z,6.97
2018-06-18T00:24:19.874Z,6.95
2018-06-18T00:26:47.183Z,6.92
2018-06-18T00:29:14.526Z,8.25
2018-06-18T00:31:41.809Z,7.25
2018-06-18T00:34:09.123Z,8.70
2018-06-18T00:36:36.407Z,8.15
2018-06-18T00:39:05.601Z,7.62
2018-06-18T00:41:32.948Z,7.35
2018-06-18T00:44:00.267Z,7.20
2018-06-18T00:46:27.603Z,8.20
2018-06-18T00:48:54.931Z,7.97
2018-06-18T00:51:22.332Z,7.47
2018-06-18T00:53:49.640Z,8.13
2018-06-18T00:56:17.411Z,8.35
2018-06-18T00:58:44.799Z,8.23
2018-06-18T01:01:12.643Z,8.13
2018-06-18T01:03:39.958Z,8.63
2018-06-18T01:06:07.428Z,8.08
2018-06-18T01:08:34.709Z,8.25
2018-06-18T01:11:02.362Z,8.35
2018-06-18T01:13:29.709Z,8.40
2018-06-18T01:15:57.342Z,8.35
2018-06-18T01:18:24.995Z,7.60
2018-06-18T01:20:52.350Z,8.75
2018-06-18T01:23:26.092Z,7.58
2018-06-18T01:25:53.430Z,8.73
2018-06-18T01:28:20.735Z,8.43
2018-06-18T01:30:48.041Z,8.23
2018-06-18T01:33:15.354Z,8.03
2018-06-18T01:35:42.744Z,8.18
2018-06-18T01:38:10.078Z,9.63
2018-06-18T01:40:37.376Z,9.18
2018-06-18T01:43:04.682Z,9.85
2018-06-18T01:45:31.976Z,9.00
2018-06-18T01:47:59.298Z,8.00
2018-06-18T01:50:26.712Z,7.40
2018-06-18T01:52:54.038Z,8.68
2018-06-18T01:55:21.376Z,8.20
2018-06-18T01:57:48.719Z,8.68
2018-06-18T02:00:16.047Z,8.80
2018-06-18T02:02:43.342Z,8.80
2018-06-18T02:05:10.684Z,8.03
2018-06-18T02:07:38.011Z,8.48
2018-06-18T02:10:05.560Z,9.48
2018-06-18T02:12:32.874Z,8.95
2018-06-18T02:15:00.185Z,9.08
2018-06-18T02:17:27.520Z,9.60
2018-06-18T02:19:54.851Z,9.13
2018-06-18T02:22:22.251Z,9.85
2018-06-18T02:24:49.540Z,8.95
2018-06-18T02:27:17.448Z,8.38
2018-06-18T02:29:50.582Z,9.20
2018-06-18T02:32:23.291Z,10.38
2018-06-18T02:34:55.974Z,9.40
2018-06-18T02:37:28.779Z,9.30
2018-06-18T02:40:01.679Z,9.40
2018-06-18T02:42:28.979Z,9.10
2018-06-18T02:44:56.301Z,8.70
2018-06-18T02:47:23.635Z,9.90
2018-06-18T02:49:50.963Z,9.08
2018-06-18T02:52:18.275Z,8.45
2018-06-18T02:54:45.581Z,8.80
2018-06-18T02:57:13.444Z,8.45
2018-06-18T02:59:40.703Z,10.00
2018-06-18T03:02:08.058Z,9.25
2018-06-18T03:04:35.374Z,8.35
2018-06-18T03:07:02.666Z,8.30
2018-06-18T03:09:30.018Z,8.65
2018-06-18T03:11:57.302Z,8.00
2018-06-18T03:14:24.799Z,8.18
2018-06-18T03:16:52.251Z,8.40
2018-06-18T03:21:32.452Z,7.35
2018-06-18T03:24:05.002Z,7.30
2018-06-18T03:26:37.598Z,8.30
2018-06-18T03:29:10.435Z,8.03
2018-06-18T03:31:37.764Z,8.68
2018-06-18T03:34:05.050Z,7.50
2018-06-18T03:36:32.381Z,7.12
2018-06-18T03:38:59.657Z,6.67
2018-06-18T03:41:27.234Z,7.25
2018-06-18T03:43:56.748Z,6.70
2018-06-18T03:46:24.038Z,6.42
2018-06-18T03:48:51.303Z,6.35
2018-06-18T03:51:18.602Z,5.10
2018-06-18T03:53:45.900Z,5.22
2018-06-18T03:56:13.248Z,5.35
2018-06-18T03:58:40.485Z,6.00
2018-06-18T04:01:16.306Z,5.30
2018-06-18T04:03:49.319Z,5.28
2018-06-18T04:06:21.898Z,5.67
2018-06-18T04:08:53.513Z,5.47
2018-06-18T04:11:26.279Z,5.53
2018-06-18T04:13:53.607Z,5.62
2018-06-18T04:16:20.866Z,5.62
2018-06-18T04:18:51.692Z,5.42
2018-06-18T04:21:18.975Z,4.40
2018-06-18T04:23:46.239Z,5.15
2018-06-18T04:26:13.518Z,5.08
2018-06-18T04:28:40.865Z,5.53
2018-06-18T04:31:08.265Z,4.58
2018-06-18T04:33:36.076Z,4.80
2018-06-18T04:36:03.418Z,4.70
2018-06-18T04:38:30.760Z,4.28
2018-06-18T04:40:58.523Z,4.78
2018-06-18T04:43:31.296Z,4.35
2018-06-18T04:46:04.315Z,4.65
2018-06-18T04:48:37.082Z,4.50
2018-06-18T04:51:04.364Z,4.78
2018-06-18T04:53:31.764Z,4.55
2018-06-18T04:55:59.475Z,4.58
2018-06-18T04:58:26.779Z,4.30
2018-06-18T05:00:59.956Z,4.10
2018-06-18T05:03:27.256Z,4.30
2018-06-18T05:05:54.743Z,5.15
2018-06-18T05:08:30.070Z,3.92
2018-06-18T05:10:57.379Z,3.80
2018-06-18T05:13:24.679Z,3.80
2018-06-18T05:15:52.850Z,4.72
2018-06-18T05:18:20.166Z,4.17
2018-06-18T05:20:47.477Z,4.47
2018-06-18T05:23:18.832Z,3.62
2018-06-18T05:25:49.716Z,4.10
2018-06-18T05:28:17.042Z,4.92
2018-06-18T05:30:44.381Z,3.95
2018-06-18T05:33:11.730Z,4.10
2018-06-18T05:35:39.250Z,4.33
2018-06-18T05:38:11.687Z,4.03
2018-06-18T05:40:39.036Z,3.98
2018-06-18T05:43:06.350Z,4.22
2018-06-18T05:45:33.796Z,4.53
2018-06-18T05:48:01.120Z,3.35
2018-06-18T05:50:28.529Z,4.50
2018-06-18T05:52:55.798Z,3.55
2018-06-18T05:55:23.134Z,3.35
2018-06-18T05:57:50.462Z,3.80
2018-06-18T06:00:18.399Z,4.85
2018-06-18T06:02:45.768Z,3.52
2018-06-18T06:05:13.067Z,3.90
2018-06-18T06:07:40.402Z,4.40
2018-06-18T06:10:07.755Z,4.40
2018-06-18T06:12:35.169Z,4.87
2018-06-18T06:15:02.440Z,4.35
2018-06-18T06:17:29.807Z,4.25
2018-06-18T06:19:57.114Z,5.17
2018-06-18T06:22:24.460Z,4.80
2018-06-18T06:24:51.823Z,4.25
2018-06-18T06:27:19.127Z,4.00
2018-06-18T06:29:46.431Z,4.47
2018-06-18T06:32:13.789Z,4.75
2018-06-18T06:34:41.855Z,4.42
2018-06-18T06:37:09.183Z,5.05
2018-06-18T06:39:36.531Z,4.42
2018-06-18T06:42:05.321Z,5.03
2018-06-18T06:44:32.615Z,4.67
2018-06-18T06:46:59.970Z,4.67
2018-06-18T06:49:27.293Z,4.60
2018-06-18T06:51:54.711Z,4.75
2018-06-18T06:54:21.967Z,4.42
2018-06-18T06:56:49.333Z,4.80
2018-06-18T06:59:16.636Z,4.33
2018-06-18T07:01:43.969Z,5.10
2018-06-18T07:04:11.297Z,4.87
2018-06-18T07:06:38.607Z,4.87
2018-06-18T07:09:07.522Z,4.45
2018-06-18T07:11:34.868Z,5.47
2018-06-18T07:14:02.155Z,5.10
2018-06-18T07:26:14.485Z,5.08
2018-06-18T07:28:41.849Z,5.20
2018-06-18T07:31:09.182Z,5.42
2018-06-18T07:33:36.550Z,5.37
2018-06-18T07:36:03.856Z,4.95
2018-06-18T07:38:31.210Z,4.90
2018-06-18T07:40:58.611Z,5.40
2018-06-18T07:43:25.892Z,4.58
2018-06-18T07:45:53.244Z,5.62
2018-06-18T07:48:20.544Z,5.70
2018-06-18T07:50:47.851Z,5.58
2018-06-18T07:53:15.186Z,6.30
2018-06-18T07:55:42.498Z,5.80
2018-06-18T07:58:09.772Z,5.37
2018-06-18T08:00:37.155Z,5.53
2018-06-18T08:03:04.494Z,4.73
2018-06-18T08:05:31.775Z,5.50
2018-06-18T08:07:59.136Z,4.90
2018-06-18T08:10:26.428Z,5.10
2018-06-18T08:12:53.915Z,5.20
2018-06-18T08:15:21.233Z,5.25
2018-06-18T08:17:48.553Z,5.58
2018-06-18T08:20:16.403Z,4.30
2018-06-18T08:22:44.104Z,5.63
2018-06-18T08:25:11.414Z,5.60
2018-06-18T08:27:38.731Z,5.90
2018-06-18T08:30:06.027Z,5.07
2018-06-18T08:32:33.292Z,4.70
2018-06-18T08:35:00.595Z,4.50
2018-06-18T08:37:27.905Z,3.80
2018-06-18T08:39:56.099Z,3.90
2018-06-18T08:42:23.414Z,4.30
2018-06-18T08:44:50.764Z,4.60
2018-06-18T08:47:18.138Z,4.20
2018-06-18T08:49:50.896Z,4.73
2018-06-18T08:52:23.595Z,4.87
2018-06-18T08:54:56.320Z,4.60
2018-06-18T08:57:29.229Z,4.60
2018-06-18T09:00:01.885Z,4.33
2018-06-18T09:02:32.091Z,4.40
2018-06-18T09:05:05.009Z,4.37
2018-06-18T09:07:37.002Z,4.43
2018-06-18T09:10:04.429Z,3.90
2018-06-18T09:12:31.779Z,3.67
2018-06-18T09:14:59.057Z,4.30
2018-06-18T09:17:26.353Z,4.03
2018-06-18T09:19:53.652Z,4.43
2018-06-18T09:22:20.967Z,3.43
2018-06-18T09:24:48.291Z,3.10
2018-06-18T09:27:15.640Z,3.70
2018-06-18T09:29:48.416Z,3.50
2018-06-18T09:32:15.826Z,3.20
2018-06-18T09:34:43.575Z,3.40
2018-06-18T09:37:10.844Z,3.37
2018-06-18T09:39:38.123Z,3.03
2018-06-18T09:42:05.736Z,3.53
2018-06-18T09:44:33.181Z,3.70
2018-06-18T09:47:00.640Z,3.20
2018-06-18T09:49:33.323Z,3.07
2018-06-18T09:52:06.197Z,2.37
2018-06-18T09:54:38.864Z,2.47
2018-06-18T09:57:16.105Z,2.13
2018-06-18T09:59:52.854Z,2.40
2018-06-18T10:12:05.325Z,2.03
2018-06-18T10:14:33.005Z,1.80
2018-06-18T10:17:01.548Z,2.30
2018-06-18T10:19:28.990Z,1.77
2018-06-18T10:21:56.404Z,1.90
2018-06-18T10:24:29.113Z,2.30
2018-06-18T10:26:56.500Z,2.20
2018-06-18T10:29:23.878Z,2.17
2018-06-18T10:31:55.373Z,2.20
2018-06-18T10:34:28.092Z,1.83
2018-06-18T10:37:01.045Z,2.10
2018-06-18T10:39:34.039Z,2.07
2018-06-18T10:42:07.773Z,2.40
2018-06-18T10:44:35.389Z,3.10
2018-06-18T10:47:02.832Z,2.47
2018-06-18T10:49:30.481Z,2.30
2018-06-18T11:01:44.025Z,2.17
2018-06-18T11:04:21.585Z,2.33
2018-06-18T11:06:48.927Z,2.10
2018-06-18T11:09:16.922Z,2.43
2018-06-18T11:11:44.971Z,2.50
2018-06-18T11:14:12.382Z,2.40
2018-06-18T11:16:39.875Z,2.57
2018-06-18T11:19:12.592Z,3.30
2018-06-18T11:21:49.248Z,2.50
2018-06-18T11:24:22.072Z,3.23
2018-06-18T11:26:55.416Z,3.33
2018-06-18T11:29:22.833Z,2.67
2018-06-18T11:31:51.014Z,2.97
2018-06-18T11:34:18.566Z,2.67
2018-06-18T11:36:50.480Z,2.40
2018-06-18T11:39:17.996Z,3.20
2018-06-18T11:41:45.492Z,3.10
2018-06-18T11:44:12.975Z,3.27
2018-06-18T11:46:40.821Z,3.10
2018-06-18T11:49:08.979Z,3.40
2018-06-18T11:51:36.516Z,3.27
2018-06-18T11:54:04.073Z,3.20
2018-06-18T12:06:21.810Z,3.27
2018-06-18T12:08:54.675Z,3.23
2018-06-18T12:11:22.152Z,3.13
2018-06-18T12:13:49.632Z,3.20
2018-06-18T12:16:17.127Z,3.60
2018-06-18T12:18:44.557Z,3.30
2018-06-18T12:21:12.001Z,4.00
2018-06-18T12:23:39.479Z,3.70
2018-06-18T12:26:06.984Z,5.17
2018-06-18T12:28:34.508Z,4.87
2018-06-18T12:31:01.892Z,3.10
2018-06-18T12:33:29.238Z,3.93
2018-06-18T12:35:56.726Z,3.97
2018-06-18T12:38:26.160Z,4.57
2018-06-18T12:40:53.677Z,4.23
2018-06-18T12:43:26.564Z,4.50
2018-06-18T12:45:59.749Z,3.90
2018-06-18T12:48:32.979Z,4.30
2018-06-18T12:51:07.207Z,4.20
2018-06-18T12:53:39.802Z,3.90
2018-06-18T12:56:12.518Z,4.00
2018-06-18T12:58:39.961Z,4.10
2018-06-18T13:01:08.024Z,4.40
2018-06-18T13:03:35.344Z,4.00
2018-06-18T13:06:02.710Z,5.30
2018-06-18T13:08:30.009Z,4.20
2018-06-18T13:10:57.362Z,3.80
2018-06-18T13:13:24.644Z,3.60
2018-06-18T13:15:52.016Z,4.20
2018-06-18T13:18:19.363Z,4.63
2018-06-18T13:20:46.759Z,5.13
2018-06-18T13:23:14.060Z,4.17
2018-06-18T13:25:41.400Z,4.33
2018-06-18T13:28:14.091Z,4.27
2018-06-18T13:30:41.450Z,4.60
2018-06-18T13:33:08.854Z,4.80
2018-06-18T13:35:36.199Z,5.67
2018-06-18T13:38:08.865Z,5.40
2018-06-18T13:40:41.588Z,5.57
2018-06-18T13:43:14.263Z,4.30
2018-06-18T13:45:45.184Z,4.53
2018-06-18T13:48:17.931Z,3.93
2018-06-18T13:50:45.341Z,4.30
2018-06-18T13:53:12.725Z,4.40
2018-06-18T13:55:40.069Z,4.03
2018-06-18T13:58:07.455Z,4.50
2018-06-18T14:00:34.827Z,3.47
2018-06-18T14:03:02.165Z,4.00
2018-06-18T14:05:29.488Z,3.67
2018-06-18T14:07:56.827Z,3.93
2018-06-18T14:10:24.232Z,4.20
2018-06-18T14:12:51.573Z,3.83
2018-06-18T14:15:18.894Z,3.30
2018-06-18T14:17:46.241Z,3.60
2018-06-18T14:20:19.025Z,2.80
2018-06-18T14:22:46.421Z,4.40
2018-06-18T14:25:13.821Z,3.60
2018-06-18T14:27:41.188Z,3.27
2018-06-18T14:30:13.927Z,3.50
2018-06-18T14:32:46.677Z,3.70
2018-06-18T14:35:19.379Z,3.43
2018-06-18T14:37:52.133Z,2.97
2018-06-18T14:40:20.593Z,3.00
2018-06-18T14:42:47.952Z,3.60
2018-06-18T14:45:15.292Z,2.73
2018-06-18T14:47:43.301Z,2.90
2018-06-18T14:50:10.677Z,2.17
2018-06-18T14:52:38.036Z,2.47
2018-06-18T14:55:05.792Z,2.90
2018-06-18T14:57:33.118Z,3.20
2018-06-18T15:00:01.898Z,2.70
2018-06-18T15:02:29.286Z,2.77
2018-06-18T15:04:57.629Z,3.00
2018-06-18T15:07:25.079Z,3.23
2018-06-18T15:09:56.396Z,3.07
2018-06-18T15:12:25.383Z,3.27
2018-06-18T15:14:58.410Z,3.77
2018-06-18T15:17:27.146Z,2.80
2018-06-18T15:19:56.208Z,3.10
2018-06-18T15:22:31.879Z,4.17
2018-06-18T15:25:00.634Z,3.37
2018-06-18T15:27:28.021Z,3.70
2018-06-18T15:29:55.405Z,3.93
2018-06-18T15:32:22.764Z,4.60
2018-06-18T15:34:50.078Z,3.00
2018-06-18T15:37:17.399Z,2.90
2018-06-18T15:39:44.803Z,3.07
2018-06-18T15:42:12.165Z,3.83
2018-06-18T15:44:39.618Z,3.23
2018-06-18T15:47:06.929Z,3.20
2018-06-18T15:49:34.336Z,2.97
2018-06-18T15:52:01.683Z,3.30
2018-06-18T15:54:29.044Z,2.90
2018-06-18T15:56:56.494Z,3.20
2018-06-18T15:59:23.824Z,2.83
2018-06-18T16:01:51.211Z,2.47
2018-06-18T16:04:18.624Z,3.10
2018-06-18T16:06:46.458Z,2.60
2018-06-18T16:09:13.779Z,3.03
2018-06-18T16:11:41.283Z,2.80
2018-06-18T16:14:09.387Z,2.70
2018-06-18T16:16:36.767Z,2.60
2018-06-18T16:19:04.147Z,2.93
2018-06-18T16:21:31.535Z,2.70
2018-06-18T16:23:58.832Z,2.90
2018-06-18T16:26:26.141Z,3.27
2018-06-18T16:28:53.487Z,2.90
2018-06-18T16:31:20.937Z,2.63
2018-06-18T16:33:48.314Z,3.50
2018-06-18T16:36:15.702Z,2.77
2018-06-18T16:38:43.176Z,3.40
2018-06-18T16:41:10.586Z,2.40
2018-06-18T16:43:37.929Z,2.90
2018-06-18T16:46:05.445Z,3.30
2018-06-18T16:48:32.812Z,2.73
2018-06-18T16:51:00.190Z,3.37
2018-06-18T16:53:27.564Z,5.00
2018-06-18T16:55:54.924Z,3.83
2018-06-18T16:58:22.321Z,2.80
2018-06-18T17:00:49.658Z,3.17
2018-06-18T17:03:17.419Z,3.80
2018-06-18T17:05:44.756Z,2.90
2018-06-18T17:08:12.106Z,3.40
2018-06-18T17:10:39.477Z,3.30
2018-06-18T17:13:06.820Z,3.30
2018-06-18T17:15:34.199Z,3.30
2018-06-18T17:18:01.648Z,3.37
2018-06-18T17:20:29.016Z,2.90
2018-06-18T17:22:56.938Z,2.90
2018-06-18T17:25:28.840Z,3.03
2018-06-18T17:27:57.255Z,3.20
2018-06-18T17:30:29.791Z,3.40
2018-06-18T17:32:57.336Z,2.90
2018-06-18T17:35:25.257Z,3.47
2018-06-18T17:37:57.242Z,3.50
2018-06-18T17:40:26.754Z,3.30
2018-06-18T17:42:54.316Z,3.43
2018-06-18T17:45:22.311Z,4.40
2018-06-18T17:47:49.827Z,3.40
2018-06-18T17:50:17.710Z,3.13
2018-06-18T17:52:47.629Z,3.20
2018-06-18T17:55:17.091Z,4.00
2018-06-18T17:57:44.796Z,3.50
2018-06-18T18:00:13.838Z,3.50
2018-06-18T18:02:41.856Z,3.30
2018-06-18T18:05:17.617Z,3.00
2018-06-18T18:07:49.621Z,3.23
2018-06-18T18:10:18.532Z,3.97
2018-06-18T18:12:47.284Z,3.07
2018-06-18T18:15:15.087Z,3.03
2018-06-18T18:27:31.866Z,3.57
2018-06-18T18:30:00.684Z,3.97
2018-06-18T18:32:28.857Z,3.03
2018-06-18T18:34:57.306Z,2.83
2018-06-18T18:37:26.173Z,3.53
2018-06-18T18:39:58.280Z,2.80
2018-06-18T18:42:25.883Z,3.03
2018-06-18T18:44:53.598Z,3.37
2018-06-18T18:47:22.342Z,4.10
2018-06-18T18:49:50.896Z,4.07
2018-06-18T18:52:18.802Z,2.80
2018-06-18T18:55:55.770Z,3.77
2018-06-18T18:58:30.442Z,3.40
2018-06-18T19:00:59.595Z,3.33
2018-06-18T19:03:29.091Z,3.50
2018-06-18T19:05:58.321Z,3.30
2018-06-18T19:08:28.093Z,3.40
2018-06-18T19:10:57.513Z,3.57
2018-06-18T19:13:27.982Z,2.90
2018-06-18T19:16:01.030Z,3.83
2018-06-18T19:18:33.688Z,2.90
2018-06-18T19:21:09.856Z,3.00
2018-06-18T19:23:42.247Z,3.30
2018-06-18T19:26:14.158Z,3.20
2018-06-18T19:38:31.891Z,4.50
2018-06-18T19:40:59.601Z,4.30
2018-06-18T19:43:27.386Z,3.83
2018-06-18T19:45:57.628Z,3.85
2018-06-18T19:48:43.373Z,4.30
2018-06-18T20:00:57.336Z,3.83
2018-06-18T20:03:25.580Z,3.30
2018-06-18T20:05:58.675Z,3.60
2018-06-18T20:08:27.553Z,4.03
2018-06-18T20:10:55.790Z,3.70
2018-06-18T20:13:24.215Z,3.55
2018-06-18T20:15:51.715Z,3.57
2018-06-18T20:18:19.295Z,3.90
2018-06-18T20:20:46.958Z,3.60
2018-06-18T20:23:24.436Z,3.77
2018-06-18T20:25:53.642Z,3.90
2018-06-18T20:28:21.209Z,3.77
2018-06-18T20:30:48.779Z,3.50
2018-06-18T20:33:17.223Z,3.80
2018-06-18T20:35:47.915Z,3.40
2018-06-18T20:38:15.852Z,4.20
2018-06-18T20:40:43.886Z,3.65
2018-06-18T20:43:16.906Z,3.90
2018-06-18T20:45:44.758Z,3.40
2018-06-18T20:48:12.256Z,3.70
2018-06-18T20:50:40.147Z,3.60
2018-06-18T20:53:12.065Z,3.80
2018-06-18T20:55:39.697Z,4.15
2018-06-18T20:58:11.192Z,3.47
2018-06-18T21:00:38.719Z,3.58
2018-06-18T21:03:07.251Z,3.33
2018-06-18T21:05:35.389Z,3.85
2018-06-18T21:08:03.353Z,4.55
2018-06-18T21:10:30.875Z,4.40
2018-06-18T21:13:06.806Z,4.93
2018-06-18T21:15:35.095Z,5.03
2018-06-18T21:18:02.491Z,5.60
2018-06-18T21:20:30.053Z,6.43
2018-06-18T21:22:59.318Z,6.12
2018-06-18T21:25:27.099Z,6.63
2018-06-18T21:27:56.148Z,6.35
2018-06-18T21:30:23.607Z,7.10
2018-06-18T21:32:52.208Z,8.63
2018-06-18T21:35:20.602Z,9.33
2018-06-18T21:37:48.180Z,9.87
2018-06-18T21:40:22.860Z,12.33
2018-06-18T21:42:50.399Z,12.25
2018-06-18T21:45:23.412Z,10.70
2018-06-18T21:47:52.336Z,10.90
2018-06-18T21:50:21.468Z,11.55
2018-06-18T21:52:49.479Z,11.63
2018-06-18T21:55:16.879Z,11.30
2018-06-18T21:57:50.621Z,12.07
2018-06-18T22:00:20.960Z,11.67
2018-06-18T22:12:34.463Z,11.70
2018-06-18T22:15:02.992Z,11.95
2018-06-18T22:17:36.604Z,13.25
2018-06-18T22:20:09.867Z,11.25
2018-06-18T22:32:22.292Z,11.35
2018-06-18T22:34:54.131Z,11.97
2018-06-18T22:37:21.643Z,10.90
2018-06-18T22:39:58.270Z,12.28
2018-06-18T22:42:26.531Z,12.27
2018-06-18T22:44:55.233Z,11.70
2018-06-18T22:47:23.119Z,10.93
2018-06-18T22:49:51.702Z,10.95
2018-06-18T22:52:19.242Z,10.43
2018-06-18T22:54:50.853Z,10.28
2018-06-18T22:57:19.251Z,11.30
2018-06-18T22:59:53.603Z,9.80
2018-06-18T23:02:22.553Z,10.55
2018-06-18T23:04:49.996Z,10.38
2018-06-18T23:17:02.894Z,9.45
2018-06-18T23:19:33.578Z,10.13
2018-06-18T23:22:01.668Z,10.05
2018-06-18T23:24:30.566Z,9.70
2018-06-18T23:26:59.127Z,11.15
2018-06-18T23:29:26.857Z,11.78
2018-06-18T23:31:55.519Z,10.93
2018-06-18T23:34:23.109Z,11.85
2018-06-18T23:36:50.587Z,10.82
2018-06-18T23:39:21.952Z,12.68
2018-06-18T23:41:51.558Z,11.15
2018-06-18T23:44:19.089Z,11.68
2018-06-18T23:46:46.607Z,10.68
2018-06-18T23:49:14.825Z,10.48
2018-06-18T23:51:42.878Z,10.08
2018-06-18T23:54:11.618Z,9.15
2018-06-18T23:56:39.094Z,9.70
2018-06-18T23:59:10.627Z,9.30
